Time;durP1;ratioP1;P1;durP2;ratioP2;P2;SDS_P1;SDS_P2;PMS_P1;PMS_P2;Temp;Humidity;BMP_temperature;BMP_pressure;BME280_temperature;BME280_humidity;BME280_pressure;Samples;Min_cycle;Max_cycle;Signal;HPM_P1;HPM_P2
2022/09/28 00:01:50;;;;;;;10.90;7.57;;;6.80;99.90;;;;;;5084536;28;20500;-66
2022/09/28 00:04:16;;;;;;;12.48;8.98;;;6.80;99.90;;;;;;5083913;28;20040;-65
2022/09/28 00:06:42;;;;;;;14.88;8.07;;;6.60;99.90;;;;;;5083035;28;20040;-66
2022/09/28 00:09:08;;;;;;;11.73;8.23;;;6.90;99.90;;;;;;5083699;28;20036;-68
2022/09/28 00:11:34;;;;;;;16.90;10.00;;;7.20;99.90;;;;;;5041519;28;20043;-66
2022/09/28 00:14:06;;;;;;;16.42;9.77;;;6.60;99.90;;;;;;5087921;28;20560;-65
2022/09/28 00:16:38;;;;;;;17.02;10.75;;;6.40;99.90;;;;;;5088278;28;20031;-65
2022/09/28 00:19:04;;;;;;;14.32;10.07;;;6.60;99.90;;;;;;5088366;28;20371;-65
2022/09/28 00:21:34;;;;;;;21.30;12.18;;;6.20;99.90;;;;;;5087691;28;20052;-65
2022/09/28 00:24:11;;;;;;;15.30;10.07;;;6.70;99.90;;;;;;5087353;28;20050;-65
2022/09/28 00:26:47;;;;;;;16.63;10.35;;;6.80;99.90;;;;;;5071958;28;20113;-66
2022/09/28 00:29:22;;;;;;;20.50;11.43;;;6.50;99.90;;;;;;5070354;28;20078;-67
2022/09/28 00:31:50;;;;;;;16.95;11.38;;;6.60;99.90;;;;;;5087166;28;20040;-66
2022/09/28 00:34:16;;;;;;;20.20;12.07;;;6.60;99.90;;;;;;5087066;28;20044;-67
2022/09/28 00:36:44;;;;;;;25.73;14.45;;;6.60;99.90;;;;;;5070034;28;20055;-65
2022/09/28 00:39:11;;;;;;;20.75;12.68;;;5.90;99.90;;;;;;5087406;28;20497;-66
2022/09/28 00:41:37;;;;;;;22.75;14.57;;;5.80;99.90;;;;;;5069324;28;20036;-66
2022/09/28 00:44:33;;;;;;;19.98;13.73;;;6.20;99.90;;;;;;5069401;28;20063;-65
2022/09/28 00:47:38;;;;;;;28.05;16.08;;;6.20;99.90;;;;;;5086323;28;20148;-65
2022/09/28 00:50:28;;;;;;;23.55;14.63;;;5.70;99.90;;;;;;5086245;28;20083;-64
2022/09/28 00:53:07;;;;;;;26.60;15.02;;;5.90;99.90;;;;;;5068818;28;20056;-66
2022/09/28 00:55:37;;;;;;;24.85;15.38;;;6.00;99.90;;;;;;5069817;28;20394;-65
2022/09/28 00:58:06;;;;;;;28.08;16.25;;;6.40;99.90;;;;;;5069952;28;20096;-65
2022/09/28 01:00:32;;;;;;;33.88;18.80;;;6.30;99.90;;;;;;5086635;28;20529;-64
2022/09/28 01:02:58;;;;;;;31.23;17.52;;;5.90;99.90;;;;;;5087335;28;20040;-66
2022/09/28 01:05:25;;;;;;;27.42;17.02;;;5.90;99.90;;;;;;5086516;28;20044;-65
2022/09/28 01:07:53;;;;;;;26.80;16.50;;;5.60;99.90;;;;;;5087118;28;20332;-65
2022/09/28 01:10:18;;;;;;;35.95;20.30;;;6.00;99.90;;;;;;5087568;28;20406;-68
2022/09/28 01:12:44;;;;;;;31.25;18.20;;;6.00;99.90;;;;;;5086492;28;20043;-65
2022/09/28 01:15:10;;;;;;;30.13;17.17;;;6.30;99.90;;;;;;5086347;28;20044;-65
2022/09/28 01:18:05;;;;;;;30.00;17.90;;;6.00;99.90;;;;;;5086301;28;20416;-65
2022/09/28 01:20:43;;;;;;;35.42;18.55;;;5.90;99.90;;;;;;5068808;28;20040;-66
2022/09/28 01:23:21;;;;;;;36.20;19.73;;;5.80;99.90;;;;;;5068253;28;20044;-64
2022/09/28 01:26:13;;;;;;;33.88;19.75;;;5.60;99.90;;;;;;5086101;28;20057;-65
2022/09/28 01:28:42;;;;;;;44.22;22.08;;;6.20;99.90;;;;;;5086418;28;20138;-65
2022/09/28 01:31:13;;;;;;;39.63;20.98;;;5.40;99.90;;;;;;5086469;28;20101;-64
2022/09/28 01:33:56;;;;;;;41.85;21.65;;;6.00;99.90;;;;;;5068481;28;20481;-65
2022/09/28 01:36:32;;;;;;;38.17;20.08;;;5.50;99.90;;;;;;5087058;28;20074;-64
2022/09/28 01:39:04;;;;;;;41.97;22.25;;;5.50;99.90;;;;;;5086844;28;20040;-64
2022/09/28 01:41:35;;;;;;;44.10;24.03;;;5.30;99.90;;;;;;5086943;28;20135;-64
2022/09/28 01:44:04;;;;;;;39.00;22.73;;;5.60;99.90;;;;;;5086123;28;20382;-64
2022/09/28 01:46:40;;;;;;;45.78;23.15;;;5.50;99.90;;;;;;5086438;28;20119;-64
2022/09/28 01:49:21;;;;;;;45.00;23.48;;;5.30;99.90;;;;;;5069754;28;20086;-64
2022/09/28 01:52:21;;;;;;;41.83;22.55;;;5.40;99.90;;;;;;5086276;28;20043;-65
2022/09/28 01:55:07;;;;;;;50.65;26.75;;;5.80;99.90;;;;;;5072983;28;20063;-64
2022/09/28 01:57:38;;;;;;;40.33;23.02;;;5.80;99.90;;;;;;5087030;28;20101;-64
2022/09/28 02:00:11;;;;;;;41.92;22.70;;;5.20;99.90;;;;;;5069791;28;20162;-65
2022/09/28 02:02:59;;;;;;;48.00;25.70;;;5.80;99.90;;;;;;5086761;28;20534;-65
2022/09/28 02:05:37;;;;;;;52.08;25.17;;;5.70;99.90;;;;;;5086250;28;20060;-65
2022/09/28 02:08:15;;;;;;;68.15;30.50;;;5.50;99.90;;;;;;5086616;28;20039;-65
2022/09/28 02:10:45;;;;;;;58.90;26.45;;;5.70;99.90;;;;;;5086453;28;20393;-64
2022/09/28 02:13:17;;;;;;;53.00;25.95;;;5.70;99.90;;;;;;5086608;28;20051;-66
2022/09/28 02:16:08;;;;;;;72.68;31.10;;;5.70;99.90;;;;;;5086956;28;20039;-64
2022/09/28 02:18:35;;;;;;;71.40;30.67;;;5.80;99.90;;;;;;5086245;28;20513;-64
2022/09/28 02:21:10;;;;;;;69.00;31.30;;;5.10;99.90;;;;;;5085714;28;20048;-67
2022/09/28 02:23:38;;;;;;;75.88;34.92;;;5.70;99.90;;;;;;5068927;28;20524;-65
2022/09/28 02:26:10;;;;;;;79.95;34.05;;;5.60;99.90;;;;;;5069934;28;20438;-65
2022/09/28 02:28:36;;;;;;;80.07;33.42;;;5.30;99.90;;;;;;5086032;28;20048;-64
2022/09/28 02:31:02;;;;;;;80.00;34.72;;;5.10;99.90;;;;;;5086837;28;20035;-65
2022/09/28 02:33:35;;;;;;;88.07;36.03;;;4.80;99.90;;;;;;5069460;28;20048;-65
2022/09/28 02:36:02;;;;;;;;;;;4.80;99.90;;;;;;5088206;28;20117;-65
2022/09/28 02:38:29;;;;;;;94.05;35.38;;;5.30;99.90;;;;;;5058020;28;20357;-65
2022/09/28 02:41:10;;;;;;;82.53;34.65;;;4.90;99.90;;;;;;5070147;28;20605;-64
2022/09/28 02:44:00;;;;;;;67.80;29.90;;;5.20;99.90;;;;;;5069455;28;20252;-64
2022/09/28 02:46:31;;;;;;;69.82;32.72;;;5.40;99.90;;;;;;5085910;28;20119;-65
2022/09/28 02:49:07;;;;;;;80.10;34.65;;;4.70;99.90;;;;;;5067865;28;20051;-64
2022/09/28 02:52:10;;;;;;;90.80;35.05;;;5.50;99.90;;;;;;5086570;28;20035;-65
2022/09/28 02:55:15;;;;;;;73.72;33.97;;;4.80;99.90;;;;;;5086523;28;20449;-65
2022/09/28 02:58:03;;;;;;;67.93;32.83;;;5.20;99.90;;;;;;5085545;28;20036;-64
2022/09/28 03:00:35;;;;;;;82.07;36.28;;;4.80;99.90;;;;;;5085893;28;20036;-65
2022/09/28 03:03:19;;;;;;;62.10;30.95;;;5.40;99.90;;;;;;5069171;28;20036;-64
2022/09/28 03:06:00;;;;;;;87.95;35.42;;;4.70;99.90;;;;;;5068488;28;20043;-65
2022/09/28 03:08:25;;;;;;;95.50;38.85;;;5.50;99.90;;;;;;5085843;28;20062;-64
2022/09/28 03:10:59;;;;;;;101.82;38.40;;;5.20;99.90;;;;;;5085272;28;20040;-65
2022/09/28 03:13:27;;;;;;;130.00;46.00;;;5.20;99.90;;;;;;5084580;28;20039;-65
2022/09/28 03:16:09;;;;;;;95.68;36.65;;;5.60;99.90;;;;;;5068005;28;20090;-65
2022/09/28 03:18:35;;;;;;;129.27;43.42;;;5.10;99.90;;;;;;5084430;28;20091;-68
2022/09/28 03:21:02;;;;;;;177.80;52.88;;;5.70;99.90;;;;;;5067223;28;20123;-65
2022/09/28 03:23:28;;;;;;;187.65;49.78;;;5.70;99.90;;;;;;5083580;28;20047;-65
2022/09/28 03:25:53;;;;;;;215.40;52.95;;;5.80;99.90;;;;;;5066908;28;20036;-65
2022/09/28 03:28:20;;;;;;;165.88;48.17;;;5.80;99.90;;;;;;5050135;28;20444;-65
2022/09/28 03:30:45;;;;;;;158.35;40.83;;;5.90;99.90;;;;;;5083735;28;20050;-65
2022/09/28 03:33:11;;;;;;;153.57;40.83;;;5.60;99.90;;;;;;5084087;28;20040;-65
2022/09/28 03:35:37;;;;;;;272.73;55.45;;;5.80;99.90;;;;;;5083422;28;20062;-64
2022/09/28 03:38:02;;;;;;;218.27;46.08;;;5.50;99.90;;;;;;5101040;28;20406;-67
2022/09/28 03:40:28;;;;;;;399.23;60.50;;;5.90;99.90;;;;;;5067796;28;20393;-66
2022/09/28 03:42:54;;;;;;;474.13;64.28;;;6.00;99.90;;;;;;5083757;28;20565;-65
2022/09/28 03:45:19;;;;;;;476.42;60.78;;;6.10;99.90;;;;;;5083535;28;20040;-66
2022/09/28 03:47:47;;;;;;;521.67;64.18;;;5.60;99.90;;;;;;5084423;28;20046;-65
2022/09/28 03:50:13;;;;;;;500.83;60.75;;;5.80;99.90;;;;;;5067257;28;20071;-66
2022/09/28 03:52:39;;;;;;;353.00;56.22;;;5.80;99.90;;;;;;5083852;28;20094;-65
2022/09/28 03:55:05;;;;;;;230.68;44.60;;;5.60;99.90;;;;;;5084167;28;20071;-65
2022/09/28 03:57:31;;;;;;;425.52;58.85;;;5.60;99.90;;;;;;5083923;28;20062;-65
2022/09/28 03:59:56;;;;;;;328.48;52.40;;;6.10;99.90;;;;;;5066739;28;20044;-66
2022/09/28 04:02:23;;;;;;;347.33;55.35;;;5.80;99.90;;;;;;5050491;28;20044;-65
2022/09/28 04:04:48;;;;;;;261.08;46.75;;;5.80;99.90;;;;;;5084758;28;20044;-67
2022/09/28 04:07:14;;;;;;;289.25;51.83;;;6.20;99.90;;;;;;5083734;28;20490;-65
2022/09/28 04:09:40;;;;;;;269.05;50.08;;;5.70;99.90;;;;;;5066880;28;20505;-65
2022/09/28 04:12:05;;;;;;;389.20;58.38;;;5.70;99.90;;;;;;5084542;28;20548;-67
2022/09/28 04:14:31;;;;;;;337.55;58.45;;;5.70;99.90;;;;;;5067128;28;20424;-65
2022/09/28 04:16:57;;;;;;;516.13;71.93;;;6.00;99.90;;;;;;5084032;28;20487;-65
2022/09/28 04:19:23;;;;;;;343.33;57.05;;;6.20;99.90;;;;;;5084471;28;20047;-66
2022/09/28 04:21:51;;;;;;;302.67;54.05;;;6.10;99.90;;;;;;5084523;28;20483;-66
2022/09/28 04:24:17;;;;;;;443.20;70.38;;;5.90;99.90;;;;;;5068237;28;20040;-65
2022/09/28 04:26:43;;;;;;;303.65;55.95;;;5.70;99.90;;;;;;5084224;28;20371;-66
2022/09/28 04:29:15;;;;;;;390.25;61.80;;;5.70;99.90;;;;;;5084515;28;20122;-65
2022/09/28 04:31:49;;;;;;;281.45;51.40;;;5.50;99.90;;;;;;5084247;28;20046;-66
2022/09/28 04:34:22;;;;;;;301.92;53.20;;;5.70;99.90;;;;;;5084159;28;20032;-67
2022/09/28 04:36:48;;;;;;;277.75;53.45;;;5.50;99.90;;;;;;5083751;28;20079;-66
2022/09/28 04:39:15;;;;;;;191.68;46.75;;;6.00;99.90;;;;;;5084563;28;20044;-66
2022/09/28 04:41:41;;;;;;;193.50;46.25;;;5.70;99.90;;;;;;5085836;28;20051;-67
2022/09/28 04:44:08;;;;;;;292.48;58.58;;;5.50;99.90;;;;;;5084678;28;20658;-65
2022/09/28 04:46:34;;;;;;;324.88;64.65;;;5.60;99.90;;;;;;5083510;28;20040;-66
2022/09/28 04:49:00;;;;;;;234.80;51.83;;;5.30;99.90;;;;;;5067608;28;20039;-65
2022/09/28 04:51:26;;;;;;;260.73;54.55;;;5.40;99.90;;;;;;5083927;28;20051;-67
2022/09/28 04:53:51;;;;;;;243.52;42.17;;;5.20;99.90;;;;;;5067220;28;20052;-66
2022/09/28 04:56:18;;;;;;;388.83;61.03;;;5.50;99.90;;;;;;5082807;28;20075;-67
2022/09/28 04:58:44;;;;;;;265.55;48.58;;;5.70;99.90;;;;;;5103558;28;20040;-66
2022/09/28 05:01:13;;;;;;;216.90;49.47;;;5.50;99.90;;;;;;5087736;28;20128;-66
2022/09/28 05:03:39;;;;;;;232.45;45.10;;;5.10;99.90;;;;;;5086622;28;20044;-66
2022/09/28 05:06:05;;;;;;;268.08;49.33;;;5.10;99.90;;;;;;5070161;28;20414;-66
2022/09/28 05:08:32;;;;;;;172.25;35.38;;;5.60;99.90;;;;;;5086724;28;20047;-66
2022/09/28 05:11:04;;;;;;;273.50;47.10;;;5.40;99.90;;;;;;5070120;28;20048;-66
2022/09/28 05:13:30;;;;;;;289.08;56.75;;;4.90;99.90;;;;;;5086182;28;20329;-68
2022/09/28 05:15:57;;;;;;;442.25;68.30;;;5.40;99.90;;;;;;5086059;28;20062;-66
2022/09/28 05:18:23;;;;;;;345.63;53.75;;;4.80;99.90;;;;;;5086183;28;20459;-66
2022/09/28 05:20:49;;;;;;;279.77;45.05;;;5.50;99.90;;;;;;5086540;28;20135;-65
2022/09/28 05:23:16;;;;;;;491.95;55.22;;;5.40;99.90;;;;;;5068793;28;20126;-66
2022/09/28 05:25:42;;;;;;;309.45;43.40;;;5.30;99.90;;;;;;5085955;28;20135;-65
2022/09/28 05:28:08;;;;;;;354.48;50.22;;;4.90;99.90;;;;;;5085196;28;20043;-67
2022/09/28 05:30:35;;;;;;;403.30;55.33;;;5.40;99.90;;;;;;5067915;28;20347;-65
2022/09/28 05:33:02;;;;;;;300.90;48.78;;;5.40;99.90;;;;;;5084487;28;20039;-66
2022/09/28 05:35:28;;;;;;;152.48;35.42;;;4.80;99.90;;;;;;5085749;28;20044;-67
2022/09/28 05:37:54;;;;;;;224.10;42.42;;;4.70;99.90;;;;;;5067635;28;20128;-67
2022/09/28 05:40:20;;;;;;;343.88;57.85;;;5.10;99.90;;;;;;5086322;28;20067;-67
2022/09/28 05:42:46;;;;;;;151.52;37.20;;;4.80;99.90;;;;;;5086211;28;20452;-66
2022/09/28 05:45:12;;;;;;;179.90;40.08;;;4.50;99.90;;;;;;5086257;28;20065;-66
2022/09/28 05:47:39;;;;;;;136.32;34.72;;;4.50;99.90;;;;;;5086146;28;20390;-66
2022/09/28 05:50:07;;;;;;;237.18;48.65;;;5.20;99.90;;;;;;5085542;28;20126;-66
2022/09/28 05:52:33;;;;;;;147.50;37.50;;;4.70;99.90;;;;;;5084931;28;20054;-66
2022/09/28 05:54:59;;;;;;;157.73;38.10;;;4.80;99.90;;;;;;5085628;28;20040;-65
2022/09/28 05:57:25;;;;;;;139.23;34.78;;;4.90;99.90;;;;;;5068028;28;20044;-66
2022/09/28 05:59:50;;;;;;;199.80;43.10;;;4.50;99.90;;;;;;5084809;28;20131;-67
2022/09/28 06:02:16;;;;;;;260.55;48.75;;;4.90;99.90;;;;;;5084641;28;20097;-66
2022/09/28 06:04:42;;;;;;;185.00;36.33;;;4.90;99.90;;;;;;5083758;28;20047;-65
2022/09/28 06:07:07;;;;;;;223.98;45.53;;;4.60;99.90;;;;;;5068536;28;20146;-66
2022/09/28 06:09:33;;;;;;;178.95;39.50;;;4.90;99.90;;;;;;5082677;28;20115;-66
2022/09/28 06:11:59;;;;;;;166.32;40.38;;;4.60;99.90;;;;;;5067201;28;20505;-66
2022/09/28 06:14:25;;;;;;;164.77;38.08;;;4.30;99.90;;;;;;5068310;28;20052;-66
2022/09/28 06:16:51;;;;;;;199.88;42.40;;;4.30;99.90;;;;;;5067693;28;20579;-68
2022/09/28 06:19:17;;;;;;;211.13;42.80;;;4.30;99.90;;;;;;5083676;28;20086;-66
2022/09/28 06:21:43;;;;;;;189.95;43.38;;;4.60;99.90;;;;;;5084315;28;20035;-65
2022/09/28 06:24:09;;;;;;;183.38;41.53;;;4.90;99.90;;;;;;5085101;28;20035;-66
2022/09/28 06:26:34;;;;;;;164.07;38.65;;;4.70;99.90;;;;;;5068521;28;20123;-66
2022/09/28 06:29:00;;;;;;;287.25;50.60;;;4.30;99.90;;;;;;5068074;28;20040;-66
2022/09/28 06:31:28;;;;;;;183.02;40.30;;;4.80;99.90;;;;;;5085720;28;20126;-65
2022/09/28 06:33:54;;;;;;;231.02;50.45;;;4.90;99.90;;;;;;5069472;28;20044;-66
2022/09/28 06:36:21;;;;;;;221.50;45.50;;;5.10;99.90;;;;;;5085713;28;20529;-66
2022/09/28 06:38:47;;;;;;;235.02;50.25;;;5.00;99.90;;;;;;5085572;28;20056;-66
2022/09/28 06:41:13;;;;;;;194.13;48.38;;;5.20;99.90;;;;;;5066904;28;20489;-66
2022/09/28 06:43:39;;;;;;;172.75;43.25;;;4.80;99.90;;;;;;5085225;28;20497;-66
2022/09/28 06:46:06;;;;;;;224.25;54.95;;;5.40;99.90;;;;;;5067593;28;20036;-66
2022/09/28 06:48:32;;;;;;;170.65;45.15;;;4.90;99.90;;;;;;5085092;28;20677;-66
2022/09/28 06:50:59;;;;;;;164.02;45.13;;;5.20;99.90;;;;;;5080896;28;20052;-67
2022/09/28 06:53:27;;;;;;;211.07;52.17;;;5.60;99.90;;;;;;5065675;28;20046;-66
2022/09/28 06:55:52;;;;;;;152.93;39.75;;;5.70;99.90;;;;;;5082865;28;20047;-66
2022/09/28 06:58:19;;;;;;;95.10;32.15;;;5.80;99.90;;;;;;5083818;28;20448;-66
2022/09/28 07:00:47;;;;;;;132.00;41.78;;;5.20;99.90;;;;;;5083738;28;20043;-66
2022/09/28 07:03:15;;;;;;;111.47;35.83;;;5.30;99.90;;;;;;5065756;28;20036;-66
2022/09/28 07:05:43;;;;;;;133.38;38.72;;;5.90;99.90;;;;;;5065165;28;20036;-66
2022/09/28 07:08:10;;;;;;;114.70;36.13;;;6.10;99.90;;;;;;5083569;28;20104;-66
2022/09/28 07:10:41;;;;;;;136.48;33.22;;;5.50;99.90;;;;;;5083570;28;20040;-66
2022/09/28 07:13:07;;;;;;;113.05;31.02;;;6.30;99.90;;;;;;5083403;28;20040;-66
2022/09/28 07:15:33;;;;;;;168.95;32.38;;;6.20;99.90;;;;;;5083581;28;20055;-66
2022/09/28 07:18:01;;;;;;;161.05;35.88;;;6.30;99.90;;;;;;5084314;28;20559;-67
2022/09/28 07:20:27;;;;;;;141.43;36.30;;;5.90;99.90;;;;;;5083423;28;20101;-66
2022/09/28 07:22:58;;;;;;;122.78;31.00;;;6.00;99.90;;;;;;5085007;28;20119;-66
2022/09/28 07:25:24;;;;;;;90.65;26.25;;;6.50;99.90;;;;;;5083475;28;20043;-66
2022/09/28 07:27:54;;;;;;;163.52;34.45;;;6.60;99.90;;;;;;5084768;28;20040;-66
2022/09/28 07:30:20;;;;;;;225.38;38.03;;;6.60;99.90;;;;;;5084925;28;20485;-66
2022/09/28 07:32:47;;;;;;;157.52;27.55;;;6.10;99.90;;;;;;5085621;28;20102;-66
2022/09/28 07:35:13;;;;;;;169.43;33.20;;;6.60;99.90;;;;;;5083224;28;20047;-66
2022/09/28 07:37:39;;;;;;;136.00;31.60;;;6.70;99.90;;;;;;5066983;28;20056;-65
2022/09/28 07:42:51;;;;;;;178.15;37.10;;;6.50;99.90;;;;;;5082265;28;20181;-66
2022/09/28 07:45:19;;;;;;;117.65;28.35;;;7.00;99.90;;;;;;5066120;28;20425;-65
2022/09/28 07:47:45;;;;;;;153.88;22.60;;;7.20;99.90;;;;;;5084229;28;20032;-66
2022/09/28 07:50:12;;;;;;;121.05;23.48;;;6.90;99.90;;;;;;5067953;28;20477;-67
2022/09/28 07:52:37;;;;;;;174.25;29.25;;;7.40;99.90;;;;;;5084189;28;20054;-67
2022/09/28 07:55:04;;;;;;;108.07;22.40;;;7.10;99.90;;;;;;5066640;28;20043;-68
2022/09/28 07:57:32;;;;;;;92.00;21.05;;;7.40;99.90;;;;;;5084227;28;20544;-66
2022/09/28 07:59:59;;;;;;;136.27;18.92;;;7.90;99.90;;;;;;5038246;28;20043;-66
2022/09/28 08:02:25;;;;;;;184.00;27.60;;;7.40;99.90;;;;;;5067094;28;20047;-69
2022/09/28 08:04:51;;;;;;;148.80;28.17;;;8.10;99.90;;;;;;5084428;28;20119;-67
2022/09/28 08:07:17;;;;;;;50.15;17.67;;;8.30;99.90;;;;;;5068108;28;20130;-67
2022/09/28 08:09:44;;;;;;;39.85;14.68;;;8.30;99.90;;;;;;5068397;28;20105;-64
2022/09/28 08:12:14;;;;;;;62.80;21.67;;;8.40;99.90;;;;;;5068220;28;20054;-68
2022/09/28 08:14:40;;;;;;;44.95;14.30;;;8.20;99.90;;;;;;5067278;28;20131;-65
2022/09/28 08:17:06;;;;;;;63.03;23.30;;;8.70;99.90;;;;;;5085283;28;20050;-65
2022/09/28 08:22:18;;;;;;;62.40;13.27;;;8.60;99.90;;;;;;5085210;28;20441;-67
2022/09/28 08:24:44;;;;;;;22.55;11.85;;;9.20;99.90;;;;;;5084985;28;20506;-64
2022/09/28 08:27:11;;;;;;;22.23;11.80;;;9.30;99.90;;;;;;5085372;28;20055;-65
2022/09/28 08:29:37;;;;;;;41.10;14.65;;;9.50;99.90;;;;;;5085125;28;20528;-64
2022/09/28 08:32:06;;;;;;;34.53;16.77;;;10.20;99.90;;;;;;5086319;28;20039;-65
2022/09/28 08:34:39;;;;;;;27.25;8.55;;;10.20;99.90;;;;;;5105404;28;20048;-64
2022/09/28 08:37:07;;;;;;;29.23;8.57;;;10.50;99.90;;;;;;5088646;28;20060;-65
2022/09/28 08:39:34;;;;;;;34.70;9.68;;;10.70;99.90;;;;;;5072243;28;20047;-67
2022/09/28 08:41:59;;;;;;;11.85;7.63;;;10.70;99.90;;;;;;5072872;28;20051;-64
2022/09/28 08:44:30;;;;;;;41.40;11.25;;;10.80;99.90;;;;;;5089995;28;20596;-65
2022/09/28 08:47:05;;;;;;;20.95;7.38;;;10.70;99.90;;;;;;5088961;28;20544;-65
2022/09/28 08:49:35;;;;;;;15.88;7.35;;;10.70;99.90;;;;;;5071749;28;20036;-64
2022/09/28 08:52:10;;;;;;;8.07;6.47;;;10.80;99.90;;;;;;5088971;28;20409;-64
2022/09/28 08:55:04;;;;;;;11.48;7.43;;;10.90;99.90;;;;;;5086782;28;20157;-65
2022/09/28 08:57:41;;;;;;;5.20;4.80;;;11.50;99.90;;;;;;5053288;28;20052;-66
2022/09/28 09:00:18;;;;;;;14.52;5.00;;;12.00;99.90;;;;;;5084157;28;20040;-64
2022/09/28 09:02:45;;;;;;;4.43;3.78;;;12.60;99.90;;;;;;5063674;28;20051;-65
2022/09/28 09:05:14;;;;;;;3.85;3.05;;;12.80;99.90;;;;;;5081021;28;20451;-65
2022/09/28 09:07:54;;;;;;;4.55;4.22;;;12.80;99.90;;;;;;5080981;28;20329;-65
2022/09/28 09:10:50;;;;;;;6.13;4.47;;;12.30;99.90;;;;;;5064334;28;20481;-64
2022/09/28 09:13:42;;;;;;;4.80;4.40;;;12.00;99.90;;;;;;5080616;28;20853;-64
2022/09/28 09:16:17;;;;;;;5.03;4.63;;;11.60;99.90;;;;;;5080188;28;20040;-66
2022/09/28 09:19:02;;;;;;;3.63;3.42;;;11.70;99.90;;;;;;5062764;28;20592;-65
2022/09/28 09:21:42;;;;;;;5.43;4.25;;;11.80;99.90;;;;;;5081211;28;20417;-64
2022/09/28 09:24:17;;;;;;;7.45;5.53;;;12.00;99.90;;;;;;5080469;28;20402;-66
2022/09/28 09:26:44;;;;;;;4.53;4.13;;;12.00;99.90;;;;;;5064261;28;20470;-65
2022/09/28 09:29:28;;;;;;;4.72;4.32;;;12.20;99.90;;;;;;5063613;28;20036;-65
2022/09/28 09:32:35;;;;;;;4.53;4.13;;;12.80;99.90;;;;;;5080369;28;20036;-66
2022/09/28 09:35:29;;;;;;;3.88;3.65;;;13.90;99.90;;;;;;5021372;28;20071;-66
2022/09/28 09:38:05;;;;;;;3.40;3.10;;;14.30;99.90;;;;;;5080332;28;20525;-65
2022/09/28 09:40:51;;;;;;;3.75;3.50;;;15.10;99.90;;;;;;5080582;28;20040;-66
2022/09/28 09:43:25;;;;;;;3.30;3.00;;;15.00;99.90;;;;;;5079729;28;20036;-65
2022/09/28 09:46:09;;;;;;;4.28;3.97;;;15.50;99.90;;;;;;5080381;28;20551;-65
2022/09/28 09:48:34;;;;;;;;;;;15.10;99.90;;;;;;5081110;28;20406;-64
2022/09/28 09:51:05;;;;;;;3.55;3.10;;;14.90;99.90;;;;;;5069170;28;19927;-64
2022/09/28 09:53:43;;;;;;;3.28;2.97;;;15.10;99.90;;;;;;5064421;28;20110;-67
2022/09/28 09:56:19;;;;;;;3.63;3.10;;;14.70;99.90;;;;;;5063852;28;20340;-68
2022/09/28 09:58:50;;;;;;;3.55;3.25;;;14.90;99.90;;;;;;5080363;28;20040;-66
2022/09/28 10:01:20;;;;;;;3.63;3.33;;;14.50;99.90;;;;;;5079987;28;20051;-68
2022/09/28 10:03:48;;;;;;;4.82;3.60;;;14.50;99.90;;;;;;5063635;28;20044;-66
2022/09/28 10:06:28;;;;;;;3.40;2.47;;;15.30;99.90;;;;;;5080399;28;20035;-66
2022/09/28 10:09:00;;;;;;;3.80;2.90;;;15.90;99.90;;;;;;5080356;28;20036;-66
2022/09/28 10:11:31;;;;;;;3.17;2.85;;;15.80;99.90;;;;;;5079368;28;20161;-66
2022/09/28 10:13:57;;;;;;;3.38;2.60;;;16.50;99.90;;;;;;5062809;28;20047;-65
2022/09/28 10:16:23;;;;;;;2.92;2.70;;;17.00;99.90;;;;;;5080065;28;20101;-69
2022/09/28 10:18:49;;;;;;;2.53;1.98;;;17.30;99.90;;;;;;5063093;28;20119;-66
2022/09/28 10:21:19;;;;;;;3.85;2.30;;;17.20;99.90;;;;;;5063062;28;20051;-66
2022/09/28 10:23:47;;;;;;;2.15;1.90;;;16.80;99.90;;;;;;5079064;28;20047;-66
2022/09/28 10:26:23;;;;;;;2.30;1.50;;;16.80;99.90;;;;;;5062434;28;20524;-66
2022/09/28 10:29:04;;;;;;;5.10;1.80;;;16.70;99.90;;;;;;5080227;28;20044;-67
2022/09/28 10:31:37;;;;;;;2.17;1.95;;;16.70;99.90;;;;;;5078713;28;20078;-66
2022/09/28 10:34:07;;;;;;;1.73;1.63;;;17.40;99.90;;;;;;5079596;28;20044;-67
2022/09/28 10:36:43;;;;;;;2.60;1.50;;;17.70;99.90;;;;;;5061186;28;20078;-66
2022/09/28 10:39:31;;;;;;;2.15;1.52;;;18.00;99.90;;;;;;5079155;28;20619;-66
2022/09/28 10:42:01;;;;;;;2.10;1.20;;;18.00;99.90;;;;;;5079134;28;20048;-66
2022/09/28 10:44:29;;;;;;;2.70;1.30;;;18.30;99.90;;;;;;5079451;28;20603;-66
2022/09/28 10:47:05;;;;;;;1.75;1.40;;;18.30;99.90;;;;;;5079583;28;20450;-66
2022/09/28 10:49:42;;;;;;;1.33;1.20;;;18.40;99.90;;;;;;5078512;28;20226;-66
2022/09/28 10:52:27;;;;;;;2.28;1.33;;;18.20;99.90;;;;;;5062404;28;20055;-65
2022/09/28 10:54:53;;;;;;;1.67;1.05;;;18.40;99.90;;;;;;5078276;28;20043;-66
2022/09/28 10:57:35;;;;;;;2.22;1.58;;;18.60;99.90;;;;;;5062107;28;20402;-66
2022/09/28 11:00:04;;;;;;;1.57;1.20;;;18.20;99.90;;;;;;5078298;28;20048;-65
2022/09/28 11:02:34;;;;;;;2.13;1.35;;;17.70;99.90;;;;;;5079008;28;21192;-66
2022/09/28 11:05:03;;;;;;;2.35;1.17;;;17.40;99.90;;;;;;5078300;28;20050;-67
2022/09/28 11:07:32;;;;;;;1.52;1.38;;;17.30;99.90;;;;;;5079443;28;20113;-66
2022/09/28 11:09:59;;;;;;;1.98;1.00;;;17.80;99.90;;;;;;5061749;28;20035;-66
2022/09/28 11:12:36;;;;;;;1.67;1.10;;;18.00;99.90;;;;;;5077152;28;20251;-66
2022/09/28 11:15:04;;;;;;;1.83;0.95;;;18.20;99.90;;;;;;5061570;28;20043;-66
2022/09/28 11:17:43;;;;;;;2.10;1.40;;;18.50;99.90;;;;;;5061936;28;20044;-66
2022/09/28 11:20:24;;;;;;;3.72;1.23;;;18.80;99.90;;;;;;5062062;28;20048;-66
2022/09/28 11:22:58;;;;;;;2.92;1.27;;;18.40;99.90;;;;;;5077611;28;20515;-66
2022/09/28 11:25:26;;;;;;;2.45;0.80;;;18.50;99.90;;;;;;5061009;28;20040;-67
2022/09/28 11:27:52;;;;;;;1.13;0.60;;;18.80;99.90;;;;;;5078129;28;20162;-66
2022/09/28 11:30:32;;;;;;;1.95;0.70;;;19.50;99.90;;;;;;5078795;28;20170;-66
2022/09/28 11:33:18;;;;;;;1.23;0.80;;;19.30;99.90;;;;;;5078058;28;20163;-66
2022/09/28 11:36:01;;;;;;;1.20;1.00;;;18.30;99.90;;;;;;5078453;28;20040;-66
2022/09/28 11:38:35;;;;;;;3.97;1.17;;;17.30;99.90;;;;;;5076950;28;20043;-66
2022/09/28 11:41:38;;;;;;;0.88;0.60;;;16.70;99.90;;;;;;5077957;28;20134;-66
2022/09/28 11:44:35;;;;;;;1.00;0.68;;;16.80;99.90;;;;;;5077774;28;20071;-66
2022/09/28 11:47:40;;;;;;;1.40;0.50;;;17.90;99.90;;;;;;5078293;28;20505;-66
2022/09/28 11:50:26;;;;;;;1.92;0.50;;;18.80;99.90;;;;;;5077939;28;20071;-66
2022/09/28 11:53:30;;;;;;;1.02;0.40;;;19.10;99.90;;;;;;5077564;28;20052;-66
2022/09/28 11:56:25;;;;;;;1.13;0.35;;;18.90;99.90;;;;;;5078010;28;20090;-65
2022/09/28 11:58:54;;;;;;;1.10;0.40;;;19.20;99.90;;;;;;5077273;28;20052;-66
2022/09/28 12:01:22;;;;;;;1.25;0.30;;;19.70;99.90;;;;;;5077417;28;20044;-66
2022/09/28 12:04:05;;;;;;;1.77;0.40;;;19.70;99.90;;;;;;5077655;28;20390;-66
2022/09/28 12:06:51;;;;;;;0.65;0.40;;;20.10;99.90;;;;;;5078405;28;20048;-67
2022/09/28 12:09:27;;;;;;;1.10;0.40;;;20.40;99.90;;;;;;5077685;28;20223;-66
2022/09/28 12:12:02;;;;;;;1.17;0.40;;;20.70;99.90;;;;;;5077391;28;20052;-66
2022/09/28 12:14:38;;;;;;;0.80;0.30;;;20.90;99.90;;;;;;5077227;28;20044;-66
2022/09/28 12:17:37;;;;;;;1.50;0.40;;;21.30;99.90;;;;;;5061227;28;20044;-66
2022/09/28 12:20:31;;;;;;;1.63;0.20;;;20.80;99.90;;;;;;5057631;28;20044;-66
2022/09/28 12:23:34;;;;;;;0.50;0.10;;;19.90;99.90;;;;;;5060637;28;20040;-65
2022/09/28 12:26:03;;;;;;;0.77;0.20;;;18.30;99.90;;;;;;5076170;28;20317;-66
2022/09/28 12:28:41;;;;;;;0.55;0.10;;;17.20;99.90;;;;;;5077571;28;20039;-65
2022/09/28 12:31:22;;;;;;;0.95;0.10;;;16.40;99.90;;;;;;5077463;28;20039;-65
2022/09/28 12:33:50;;;;;;;1.23;0.10;;;15.50;99.90;;;;;;5060609;28;20409;-65
2022/09/28 12:36:40;;;;;;;0.28;0.00;;;14.90;99.90;;;;;;5076695;28;20060;-65
2022/09/28 12:39:25;;;;;;;0.40;0.00;;;14.50;99.90;;;;;;5077492;28;20440;-65
2022/09/28 12:42:16;;;;;;;0.40;0.00;;;14.20;99.90;;;;;;5077413;28;20439;-66
2022/09/28 12:45:16;;;;;;;1.92;0.10;;;13.90;99.90;;;;;;5076705;28;20135;-65
2022/09/28 12:47:51;;;;;;;0.25;0.03;;;13.70;99.90;;;;;;5077786;28;20047;-65
2022/09/28 12:50:41;;;;;;;1.27;0.10;;;13.50;99.90;;;;;;5060744;28;20460;-65
2022/09/28 12:53:38;;;;;;;0.40;0.03;;;13.60;99.90;;;;;;5075954;28;20515;-65
2022/09/28 12:56:13;;;;;;;0.10;0.00;;;13.70;99.90;;;;;;5077855;28;20811;-66
2022/09/28 12:58:51;;;;;;;0.52;0.00;;;14.00;99.90;;;;;;5076860;28;20436;-66
2022/09/28 13:01:28;;;;;;;0.38;0.08;;;14.20;99.90;;;;;;5077227;28;20435;-66
2022/09/28 13:04:06;;;;;;;0.25;0.00;;;14.40;99.90;;;;;;5077555;28;20040;-66
2022/09/28 13:07:05;;;;;;;0.20;0.05;;;15.00;99.90;;;;;;5077050;28;20371;-66
2022/09/28 13:09:46;;;;;;;0.50;0.00;;;15.60;99.90;;;;;;5076304;28;20481;-67